sensor_id;sensor_type;location;lat;lon;timestamp;temperature;humidity
78366;HTU21D;67641;59.864;30.464;2024-03-25T00:00:30;14.34;64.77
78366;HTU21D;67641;59.864;30.464;2024-03-25T00:02:56;14.35;64.82
78366;HTU21D;67641;59.864;30.464;2024-03-25T00:05:23;14.36;64.74
78366;HTU21D;67641;59.864;30.464;2024-03-25T00:07:52;14.35;64.78
78366;HTU21D;67641;59.864;30.464;2024-03-25T00:10:18;14.35;64.94
78366;HTU21D;67641;59.864;30.464;2024-03-25T00:12:47;14.33;65.01
78366;HTU21D;67641;59.864;30.464;2024-03-25T00:15:19;14.30;65.06
78366;HTU21D;67641;59.864;30.464;2024-03-25T00:17:49;14.28;65.17
78366;HTU21D;67641;59.864;30.464;2024-03-25T00:20:16;14.27;65.23
78366;HTU21D;67641;59.864;30.464;2024-03-25T00:22:42;14.25;65.40
78366;HTU21D;67641;59.864;30.464;2024-03-25T00:25:08;14.23;65.54
78366;HTU21D;67641;59.864;30.464;2024-03-25T00:27:35;14.21;65.98
78366;HTU21D;67641;59.864;30.464;2024-03-25T00:30:02;14.20;66.11
78366;HTU21D;67641;59.864;30.464;2024-03-25T00:32:29;14.21;66.35
78366;HTU21D;67641;59.864;30.464;2024-03-25T00:34:55;14.21;66.52
78366;HTU21D;67641;59.864;30.464;2024-03-25T00:37:22;14.22;66.59
78366;HTU21D;67641;59.864;30.464;2024-03-25T00:39:48;14.22;66.69
78366;HTU21D;67641;59.864;30.464;2024-03-25T00:42:15;14.20;66.78
78366;HTU21D;67641;59.864;30.464;2024-03-25T00:44:41;14.20;66.78
78366;HTU21D;67641;59.864;30.464;2024-03-25T00:47:07;14.19;66.85
78366;HTU21D;67641;59.864;30.464;2024-03-25T00:49:34;14.20;66.85
78366;HTU21D;67641;59.864;30.464;2024-03-25T00:52:01;14.21;66.81
78366;HTU21D;67641;59.864;30.464;2024-03-25T00:54:28;14.22;66.85
78366;HTU21D;67641;59.864;30.464;2024-03-25T00:56:54;14.20;66.81
78366;HTU21D;67641;59.864;30.464;2024-03-25T00:59:21;14.23;66.92
78366;HTU21D;67641;59.864;30.464;2024-03-25T01:01:47;14.22;67.05
78366;HTU21D;67641;59.864;30.464;2024-03-25T01:04:14;14.23;66.91
78366;HTU21D;67641;59.864;30.464;2024-03-25T01:06:40;14.26;66.93
78366;HTU21D;67641;59.864;30.464;2024-03-25T01:09:07;14.25;66.85
78366;HTU21D;67641;59.864;30.464;2024-03-25T01:11:34;14.27;66.90
78366;HTU21D;67641;59.864;30.464;2024-03-25T01:14:00;14.25;66.90
78366;HTU21D;67641;59.864;30.464;2024-03-25T01:16:27;14.22;67.06
78366;HTU21D;67641;59.864;30.464;2024-03-25T01:18:53;14.14;67.30
78366;HTU21D;67641;59.864;30.464;2024-03-25T01:21:20;14.06;67.60
78366;HTU21D;67641;59.864;30.464;2024-03-25T01:23:46;14.03;67.84
78366;HTU21D;67641;59.864;30.464;2024-03-25T01:26:13;13.97;68.03
78366;HTU21D;67641;59.864;30.464;2024-03-25T01:28:39;13.97;68.26
78366;HTU21D;67641;59.864;30.464;2024-03-25T01:31:06;13.95;68.49
78366;HTU21D;67641;59.864;30.464;2024-03-25T01:33:32;13.96;68.68
78366;HTU21D;67641;59.864;30.464;2024-03-25T01:35:59;13.96;68.83
78366;HTU21D;67641;59.864;30.464;2024-03-25T01:38:25;13.97;69.07
78366;HTU21D;67641;59.864;30.464;2024-03-25T01:40:52;13.96;69.22
78366;HTU21D;67641;59.864;30.464;2024-03-25T01:43:19;13.97;69.31
78366;HTU21D;67641;59.864;30.464;2024-03-25T01:45:45;13.97;69.49
78366;HTU21D;67641;59.864;30.464;2024-03-25T01:48:12;13.98;69.71
78366;HTU21D;67641;59.864;30.464;2024-03-25T01:50:41;13.99;70.16
78366;HTU21D;67641;59.864;30.464;2024-03-25T01:53:09;14.01;70.29
78366;HTU21D;67641;59.864;30.464;2024-03-25T01:55:37;14.03;70.68
78366;HTU21D;67641;59.864;30.464;2024-03-25T01:58:05;14.06;71.02
78366;HTU21D;67641;59.864;30.464;2024-03-25T02:00:33;14.07;71.16
78366;HTU21D;67641;59.864;30.464;2024-03-25T02:02:59;14.09;71.29
78366;HTU21D;67641;59.864;30.464;2024-03-25T02:05:26;14.11;71.57
78366;HTU21D;67641;59.864;30.464;2024-03-25T02:07:53;14.13;71.84
78366;HTU21D;67641;59.864;30.464;2024-03-25T02:10:21;14.14;71.73
78366;HTU21D;67641;59.864;30.464;2024-03-25T02:12:47;14.12;72.00
78366;HTU21D;67641;59.864;30.464;2024-03-25T02:15:15;14.12;72.09
78366;HTU21D;67641;59.864;30.464;2024-03-25T02:17:41;14.12;72.22
78366;HTU21D;67641;59.864;30.464;2024-03-25T02:20:08;14.11;72.24
78366;HTU21D;67641;59.864;30.464;2024-03-25T02:22:35;14.08;72.41
78366;HTU21D;67641;59.864;30.464;2024-03-25T02:25:06;14.07;72.71
78366;HTU21D;67641;59.864;30.464;2024-03-25T02:27:37;14.07;72.96
78366;HTU21D;67641;59.864;30.464;2024-03-25T02:30:08;14.08;73.44
78366;HTU21D;67641;59.864;30.464;2024-03-25T02:32:35;14.10;73.79
78366;HTU21D;67641;59.864;30.464;2024-03-25T02:35:04;14.13;73.77
78366;HTU21D;67641;59.864;30.464;2024-03-25T02:37:32;14.14;73.87
78366;HTU21D;67641;59.864;30.464;2024-03-25T02:39:59;14.14;73.67
78366;HTU21D;67641;59.864;30.464;2024-03-25T02:42:28;14.14;73.89
78366;HTU21D;67641;59.864;30.464;2024-03-25T02:44:56;14.14;73.80
78366;HTU21D;67641;59.864;30.464;2024-03-25T02:47:22;14.13;73.64
78366;HTU21D;67641;59.864;30.464;2024-03-25T02:49:48;14.12;73.90
78366;HTU21D;67641;59.864;30.464;2024-03-25T02:52:15;14.08;74.01
78366;HTU21D;67641;59.864;30.464;2024-03-25T02:54:42;14.04;74.06
78366;HTU21D;67641;59.864;30.464;2024-03-25T02:57:08;14.03;74.13
78366;HTU21D;67641;59.864;30.464;2024-03-25T02:59:35;13.99;74.19
78366;HTU21D;67641;59.864;30.464;2024-03-25T03:02:01;13.99;74.24
78366;HTU21D;67641;59.864;30.464;2024-03-25T03:04:27;14.00;74.25
78366;HTU21D;67641;59.864;30.464;2024-03-25T03:06:54;13.99;74.15
78366;HTU21D;67641;59.864;30.464;2024-03-25T03:09:20;14.01;74.15
78366;HTU21D;67641;59.864;30.464;2024-03-25T03:11:47;14.00;74.14
78366;HTU21D;67641;59.864;30.464;2024-03-25T03:14:14;13.98;74.15
78366;HTU21D;67641;59.864;30.464;2024-03-25T03:16:41;13.98;74.21
78366;HTU21D;67641;59.864;30.464;2024-03-25T03:19:07;13.99;74.16
78366;HTU21D;67641;59.864;30.464;2024-03-25T03:21:34;14.00;74.10
78366;HTU21D;67641;59.864;30.464;2024-03-25T03:24:00;13.99;73.99
78366;HTU21D;67641;59.864;30.464;2024-03-25T03:26:27;14.01;73.90
78366;HTU21D;67641;59.864;30.464;2024-03-25T03:28:54;13.99;73.84
78366;HTU21D;67641;59.864;30.464;2024-03-25T03:31:20;13.99;73.67
78366;HTU21D;67641;59.864;30.464;2024-03-25T03:33:48;13.96;73.80
78366;HTU21D;67641;59.864;30.464;2024-03-25T03:36:19;13.96;74.01
78366;HTU21D;67641;59.864;30.464;2024-03-25T03:38:46;13.95;73.98
78366;HTU21D;67641;59.864;30.464;2024-03-25T03:41:13;13.94;73.99
78366;HTU21D;67641;59.864;30.464;2024-03-25T03:43:39;13.95;73.96
78366;HTU21D;67641;59.864;30.464;2024-03-25T03:46:06;13.94;73.81
78366;HTU21D;67641;59.864;30.464;2024-03-25T03:48:32;13.94;73.56
78366;HTU21D;67641;59.864;30.464;2024-03-25T03:50:59;13.97;73.62
78366;HTU21D;67641;59.864;30.464;2024-03-25T03:53:25;13.98;73.64
78366;HTU21D;67641;59.864;30.464;2024-03-25T03:55:55;14.01;73.46
78366;HTU21D;67641;59.864;30.464;2024-03-25T03:58:23;14.07;73.25
78366;HTU21D;67641;59.864;30.464;2024-03-25T04:00:50;14.14;72.94
78366;HTU21D;67641;59.864;30.464;2024-03-25T04:03:17;14.22;72.61
78366;HTU21D;67641;59.864;30.464;2024-03-25T04:05:43;14.33;72.27
78366;HTU21D;67641;59.864;30.464;2024-03-25T04:08:10;14.40;71.98
78366;HTU21D;67641;59.864;30.464;2024-03-25T04:10:36;14.52;71.52
78366;HTU21D;67641;59.864;30.464;2024-03-25T04:13:04;14.58;71.16
78366;HTU21D;67641;59.864;30.464;2024-03-25T04:15:34;14.69;70.74
78366;HTU21D;67641;59.864;30.464;2024-03-25T04:18:00;14.80;70.32
78366;HTU21D;67641;59.864;30.464;2024-03-25T04:20:27;14.92;69.94
78366;HTU21D;67641;59.864;30.464;2024-03-25T04:22:56;15.17;69.08
78366;HTU21D;67641;59.864;30.464;2024-03-25T04:25:27;15.61;67.67
78366;HTU21D;67641;59.864;30.464;2024-03-25T04:27:53;16.14;65.82
78366;HTU21D;67641;59.864;30.464;2024-03-25T04:30:20;16.56;64.40
78366;HTU21D;67641;59.864;30.464;2024-03-25T04:32:46;17.08;62.63
78366;HTU21D;67641;59.864;30.464;2024-03-25T04:35:13;17.58;60.95
78366;HTU21D;67641;59.864;30.464;2024-03-25T04:37:39;18.15;59.09
78366;HTU21D;67641;59.864;30.464;2024-03-25T04:40:08;18.56;57.69
78366;HTU21D;67641;59.864;30.464;2024-03-25T04:42:35;18.88;56.35
78366;HTU21D;67641;59.864;30.464;2024-03-25T04:45:02;19.13;55.85
78366;HTU21D;67641;59.864;30.464;2024-03-25T04:47:28;19.31;55.39
78366;HTU21D;67641;59.864;30.464;2024-03-25T04:49:55;19.51;54.52
78366;HTU21D;67641;59.864;30.464;2024-03-25T04:52:21;19.83;53.81
78366;HTU21D;67641;59.864;30.464;2024-03-25T04:54:50;20.02;53.32
78366;HTU21D;67641;59.864;30.464;2024-03-25T04:57:17;20.22;52.49
78366;HTU21D;67641;59.864;30.464;2024-03-25T04:59:43;20.26;52.55
78366;HTU21D;67641;59.864;30.464;2024-03-25T05:02:10;20.43;52.11
78366;HTU21D;67641;59.864;30.464;2024-03-25T05:04:36;20.34;52.23
78366;HTU21D;67641;59.864;30.464;2024-03-25T05:07:03;20.61;51.44
78366;HTU21D;67641;59.864;30.464;2024-03-25T05:09:29;20.91;50.55
78366;HTU21D;67641;59.864;30.464;2024-03-25T05:11:56;21.13;50.16
78366;HTU21D;67641;59.864;30.464;2024-03-25T05:14:22;21.59;48.91
78366;HTU21D;67641;59.864;30.464;2024-03-25T05:16:48;21.98;47.79
78366;HTU21D;67641;59.864;30.464;2024-03-25T05:19:16;22.10;47.28
78366;HTU21D;67641;59.864;30.464;2024-03-25T05:21:42;22.22;46.80
78366;HTU21D;67641;59.864;30.464;2024-03-25T05:24:09;22.61;45.87
78366;HTU21D;67641;59.864;30.464;2024-03-25T05:26:35;22.91;45.21
78366;HTU21D;67641;59.864;30.464;2024-03-25T05:29:01;23.11;44.29
78366;HTU21D;67641;59.864;30.464;2024-03-25T05:31:28;23.68;43.44
78366;HTU21D;67641;59.864;30.464;2024-03-25T05:33:55;23.92;43.15
78366;HTU21D;67641;59.864;30.464;2024-03-25T05:36:21;23.81;42.93
78366;HTU21D;67641;59.864;30.464;2024-03-25T05:38:48;24.06;42.18
78366;HTU21D;67641;59.864;30.464;2024-03-25T05:41:14;23.98;42.59
78366;HTU21D;67641;59.864;30.464;2024-03-25T05:43:40;23.73;43.13
78366;HTU21D;67641;59.864;30.464;2024-03-25T05:46:07;23.91;42.44
78366;HTU21D;67641;59.864;30.464;2024-03-25T05:48:33;24.12;42.37
78366;HTU21D;67641;59.864;30.464;2024-03-25T05:51:06;24.33;41.87
78366;HTU21D;67641;59.864;30.464;2024-03-25T05:53:36;24.61;41.61
78366;HTU21D;67641;59.864;30.464;2024-03-25T05:56:04;24.55;41.73
78366;HTU21D;67641;59.864;30.464;2024-03-25T05:58:31;23.88;43.05
78366;HTU21D;67641;59.864;30.464;2024-03-25T06:00:57;23.26;43.99
78366;HTU21D;67641;59.864;30.464;2024-03-25T06:03:24;23.46;43.77
78366;HTU21D;67641;59.864;30.464;2024-03-25T06:05:50;23.66;43.03
78366;HTU21D;67641;59.864;30.464;2024-03-25T06:08:16;23.40;43.42
78366;HTU21D;67641;59.864;30.464;2024-03-25T06:10:52;23.77;42.21
78366;HTU21D;67641;59.864;30.464;2024-03-25T06:13:19;24.24;41.49
78366;HTU21D;67641;59.864;30.464;2024-03-25T06:15:46;24.80;40.22
78366;HTU21D;67641;59.864;30.464;2024-03-25T06:18:13;24.62;39.97
78366;HTU21D;67641;59.864;30.464;2024-03-25T06:20:39;24.99;39.41
78366;HTU21D;67641;59.864;30.464;2024-03-25T06:23:07;24.82;38.94
78366;HTU21D;67641;59.864;30.464;2024-03-25T06:25:33;24.11;40.82
78366;HTU21D;67641;59.864;30.464;2024-03-25T06:28:01;23.39;42.13
78366;HTU21D;67641;59.864;30.464;2024-03-25T06:30:28;23.00;43.19
78366;HTU21D;67641;59.864;30.464;2024-03-25T06:33:13;23.46;41.58
78366;HTU21D;67641;59.864;30.464;2024-03-25T06:35:57;23.74;40.95
78366;HTU21D;67641;59.864;30.464;2024-03-25T06:38:24;23.86;40.81
78366;HTU21D;67641;59.864;30.464;2024-03-25T06:40:50;24.14;40.74
78366;HTU21D;67641;59.864;30.464;2024-03-25T06:43:17;24.02;40.62
78366;HTU21D;67641;59.864;30.464;2024-03-25T06:45:44;23.55;41.23
78366;HTU21D;67641;59.864;30.464;2024-03-25T06:48:11;23.11;42.65
78366;HTU21D;67641;59.864;30.464;2024-03-25T06:50:37;23.55;42.27
78366;HTU21D;67641;59.864;30.464;2024-03-25T06:53:04;23.22;43.19
78366;HTU21D;67641;59.864;30.464;2024-03-25T06:55:30;23.23;42.13
78366;HTU21D;67641;59.864;30.464;2024-03-25T06:57:56;23.75;40.67
78366;HTU21D;67641;59.864;30.464;2024-03-25T07:00:23;23.70;41.00
78366;HTU21D;67641;59.864;30.464;2024-03-25T07:02:49;24.41;39.91
78366;HTU21D;67641;59.864;30.464;2024-03-25T07:05:16;24.61;39.89
78366;HTU21D;67641;59.864;30.464;2024-03-25T07:07:42;24.12;40.97
78366;HTU21D;67641;59.864;30.464;2024-03-25T07:10:09;23.61;42.23
78366;HTU21D;67641;59.864;30.464;2024-03-25T07:12:35;22.88;43.61
78366;HTU21D;67641;59.864;30.464;2024-03-25T07:15:02;23.07;44.15
78366;HTU21D;67641;59.864;30.464;2024-03-25T07:17:29;23.96;42.53
78366;HTU21D;67641;59.864;30.464;2024-03-25T07:19:55;23.92;42.37
78366;HTU21D;67641;59.864;30.464;2024-03-25T07:22:22;23.10;43.64
78366;HTU21D;67641;59.864;30.464;2024-03-25T07:24:48;22.64;44.63
78366;HTU21D;67641;59.864;30.464;2024-03-25T07:27:14;22.65;44.66
78366;HTU21D;67641;59.864;30.464;2024-03-25T07:29:43;23.09;43.78
78366;HTU21D;67641;59.864;30.464;2024-03-25T07:32:09;23.54;41.42
78366;HTU21D;67641;59.864;30.464;2024-03-25T07:34:36;23.73;41.79
78366;HTU21D;67641;59.864;30.464;2024-03-25T07:37:02;24.13;41.03
78366;HTU21D;67641;59.864;30.464;2024-03-25T07:39:29;24.51;39.87
78366;HTU21D;67641;59.864;30.464;2024-03-25T07:41:56;24.04;40.63
78366;HTU21D;67641;59.864;30.464;2024-03-25T07:44:22;23.59;42.27
78366;HTU21D;67641;59.864;30.464;2024-03-25T07:46:48;23.50;42.22
78366;HTU21D;67641;59.864;30.464;2024-03-25T07:49:15;23.65;41.38
78366;HTU21D;67641;59.864;30.464;2024-03-25T07:51:41;24.18;40.20
78366;HTU21D;67641;59.864;30.464;2024-03-25T07:54:08;24.33;39.10
78366;HTU21D;67641;59.864;30.464;2024-03-25T07:56:36;24.42;39.17
78366;HTU21D;67641;59.864;30.464;2024-03-25T07:59:03;24.92;38.33
78366;HTU21D;67641;59.864;30.464;2024-03-25T08:01:30;24.12;39.38
78366;HTU21D;67641;59.864;30.464;2024-03-25T08:03:56;23.82;40.81
78366;HTU21D;67641;59.864;30.464;2024-03-25T08:06:23;23.77;41.01
78366;HTU21D;67641;59.864;30.464;2024-03-25T08:08:49;23.70;41.04
78366;HTU21D;67641;59.864;30.464;2024-03-25T08:11:16;23.27;41.29
78366;HTU21D;67641;59.864;30.464;2024-03-25T08:13:42;22.57;42.95
78366;HTU21D;67641;59.864;30.464;2024-03-25T08:16:09;22.51;43.56
78366;HTU21D;67641;59.864;30.464;2024-03-25T08:18:36;22.47;43.63
78366;HTU21D;67641;59.864;30.464;2024-03-25T08:21:02;22.18;44.01
78366;HTU21D;67641;59.864;30.464;2024-03-25T08:23:29;22.31;43.43
78366;HTU21D;67641;59.864;30.464;2024-03-25T08:25:55;22.70;43.15
78366;HTU21D;67641;59.864;30.464;2024-03-25T08:28:22;23.45;42.42
78366;HTU21D;67641;59.864;30.464;2024-03-25T08:30:49;23.53;41.65
78366;HTU21D;67641;59.864;30.464;2024-03-25T08:33:15;23.61;41.82
78366;HTU21D;67641;59.864;30.464;2024-03-25T08:35:42;23.76;41.78
78366;HTU21D;67641;59.864;30.464;2024-03-25T08:38:08;23.58;41.86
78366;HTU21D;67641;59.864;30.464;2024-03-25T08:40:35;23.61;41.20
78366;HTU21D;67641;59.864;30.464;2024-03-25T08:43:02;23.50;41.13
78366;HTU21D;67641;59.864;30.464;2024-03-25T08:45:28;23.11;42.00
78366;HTU21D;67641;59.864;30.464;2024-03-25T08:47:55;23.02;42.20
78366;HTU21D;67641;59.864;30.464;2024-03-25T08:50:21;22.85;42.90
78366;HTU21D;67641;59.864;30.464;2024-03-25T08:52:47;22.72;43.66
78366;HTU21D;67641;59.864;30.464;2024-03-25T08:55:14;22.64;44.04
78366;HTU21D;67641;59.864;30.464;2024-03-25T08:57:40;22.91;43.64
78366;HTU21D;67641;59.864;30.464;2024-03-25T09:00:07;23.01;43.98
78366;HTU21D;67641;59.864;30.464;2024-03-25T09:02:36;22.78;43.64
78366;HTU21D;67641;59.864;30.464;2024-03-25T09:05:03;22.95;43.84
78366;HTU21D;67641;59.864;30.464;2024-03-25T09:07:36;22.98;44.22
78366;HTU21D;67641;59.864;30.464;2024-03-25T09:10:03;23.26;43.44
78366;HTU21D;67641;59.864;30.464;2024-03-25T09:12:48;23.31;43.58
78366;HTU21D;67641;59.864;30.464;2024-03-25T09:15:14;22.99;44.43
78366;HTU21D;67641;59.864;30.464;2024-03-25T09:17:41;22.86;44.33
78366;HTU21D;67641;59.864;30.464;2024-03-25T09:20:08;23.17;44.21
78366;HTU21D;67641;59.864;30.464;2024-03-25T09:22:44;23.14;44.20
78366;HTU21D;67641;59.864;30.464;2024-03-25T09:25:11;23.12;44.02
78366;HTU21D;67641;59.864;30.464;2024-03-25T09:27:37;23.45;42.80
78366;HTU21D;67641;59.864;30.464;2024-03-25T09:30:04;23.59;42.68
78366;HTU21D;67641;59.864;30.464;2024-03-25T09:32:30;23.71;42.37
78366;HTU21D;67641;59.864;30.464;2024-03-25T09:34:57;23.68;43.06
78366;HTU21D;67641;59.864;30.464;2024-03-25T09:37:24;23.53;43.51
78366;HTU21D;67641;59.864;30.464;2024-03-25T09:39:51;23.50;42.76
78366;HTU21D;67641;59.864;30.464;2024-03-25T09:42:25;23.57;43.23
78366;HTU21D;67641;59.864;30.464;2024-03-25T09:44:55;23.73;41.08
78366;HTU21D;67641;59.864;30.464;2024-03-25T09:47:23;24.14;39.17
78366;HTU21D;67641;59.864;30.464;2024-03-25T09:49:51;24.43;39.17
78366;HTU21D;67641;59.864;30.464;2024-03-25T09:52:20;24.91;38.21
78366;HTU21D;67641;59.864;30.464;2024-03-25T09:54:47;24.93;37.12
78366;HTU21D;67641;59.864;30.464;2024-03-25T09:57:14;25.35;37.73
78366;HTU21D;67641;59.864;30.464;2024-03-25T09:59:40;25.01;37.85
78366;HTU21D;67641;59.864;30.464;2024-03-25T10:02:10;25.15;37.47
78366;HTU21D;67641;59.864;30.464;2024-03-25T10:04:45;25.65;35.76
78366;HTU21D;67641;59.864;30.464;2024-03-25T10:07:22;25.31;35.40
78366;HTU21D;67641;59.864;30.464;2024-03-25T10:09:49;25.54;35.90
78366;HTU21D;67641;59.864;30.464;2024-03-25T10:12:16;25.39;36.34
78366;HTU21D;67641;59.864;30.464;2024-03-25T10:14:43;25.01;38.24
78366;HTU21D;67641;59.864;30.464;2024-03-25T10:17:10;25.15;38.32
78366;HTU21D;67641;59.864;30.464;2024-03-25T10:19:36;24.86;37.69
78366;HTU21D;67641;59.864;30.464;2024-03-25T10:22:04;25.21;37.03
78366;HTU21D;67641;59.864;30.464;2024-03-25T10:24:44;25.56;35.31
78366;HTU21D;67641;59.864;30.464;2024-03-25T10:27:20;25.88;34.96
78366;HTU21D;67641;59.864;30.464;2024-03-25T10:29:54;25.83;34.66
78366;HTU21D;67641;59.864;30.464;2024-03-25T10:32:23;25.71;32.82
78366;HTU21D;67641;59.864;30.464;2024-03-25T10:34:51;25.45;33.93
78366;HTU21D;67641;59.864;30.464;2024-03-25T10:37:18;25.19;36.54
78366;HTU21D;67641;59.864;30.464;2024-03-25T10:39:49;24.36;37.21
78366;HTU21D;67641;59.864;30.464;2024-03-25T10:42:20;23.90;40.60
78366;HTU21D;67641;59.864;30.464;2024-03-25T10:44:47;24.32;40.59
78366;HTU21D;67641;59.864;30.464;2024-03-25T10:47:20;25.01;38.53
78366;HTU21D;67641;59.864;30.464;2024-03-25T10:49:56;25.39;35.93
78366;HTU21D;67641;59.864;30.464;2024-03-25T10:52:27;25.32;35.75
78366;HTU21D;67641;59.864;30.464;2024-03-25T10:54:56;25.47;34.22
78366;HTU21D;67641;59.864;30.464;2024-03-25T10:57:23;25.46;35.58
78366;HTU21D;67641;59.864;30.464;2024-03-25T10:59:50;25.46;36.47
78366;HTU21D;67641;59.864;30.464;2024-03-25T11:02:17;25.56;37.51
78366;HTU21D;67641;59.864;30.464;2024-03-25T11:04:45;25.61;37.86
78366;HTU21D;67641;59.864;30.464;2024-03-25T11:07:13;25.74;35.68
78366;HTU21D;67641;59.864;30.464;2024-03-25T11:09:40;24.79;36.24
78366;HTU21D;67641;59.864;30.464;2024-03-25T11:12:10;24.10;37.79
78366;HTU21D;67641;59.864;30.464;2024-03-25T11:14:37;23.57;39.23
78366;HTU21D;67641;59.864;30.464;2024-03-25T11:17:14;23.16;40.84
78366;HTU21D;67641;59.864;30.464;2024-03-25T11:19:42;23.00;40.63
78366;HTU21D;67641;59.864;30.464;2024-03-25T11:22:10;22.80;41.47
78366;HTU21D;67641;59.864;30.464;2024-03-25T11:24:37;22.54;42.68
78366;HTU21D;67641;59.864;30.464;2024-03-25T11:27:09;22.33;44.02
78366;HTU21D;67641;59.864;30.464;2024-03-25T11:29:36;22.46;43.54
78366;HTU21D;67641;59.864;30.464;2024-03-25T11:32:06;22.16;42.19
78366;HTU21D;67641;59.864;30.464;2024-03-25T11:34:35;21.80;42.00
78366;HTU21D;67641;59.864;30.464;2024-03-25T11:37:02;21.90;42.39
78366;HTU21D;67641;59.864;30.464;2024-03-25T11:39:28;22.01;43.28
78366;HTU21D;67641;59.864;30.464;2024-03-25T11:41:55;22.07;42.77
78366;HTU21D;67641;59.864;30.464;2024-03-25T11:44:21;21.85;43.40
78366;HTU21D;67641;59.864;30.464;2024-03-25T11:46:52;21.83;43.58
78366;HTU21D;67641;59.864;30.464;2024-03-25T11:49:21;21.90;43.26
78366;HTU21D;67641;59.864;30.464;2024-03-25T11:51:47;21.66;44.18
78366;HTU21D;67641;59.864;30.464;2024-03-25T11:54:14;21.48;44.54
78366;HTU21D;67641;59.864;30.464;2024-03-25T11:56:43;21.47;44.95
78366;HTU21D;67641;59.864;30.464;2024-03-25T11:59:11;21.31;45.33
78366;HTU21D;67641;59.864;30.464;2024-03-25T12:01:41;21.16;45.97
78366;HTU21D;67641;59.864;30.464;2024-03-25T12:04:17;21.09;46.94
78366;HTU21D;67641;59.864;30.464;2024-03-25T12:06:45;21.14;47.54
78366;HTU21D;67641;59.864;30.464;2024-03-25T12:09:11;21.19;47.80
78366;HTU21D;67641;59.864;30.464;2024-03-25T12:11:57;21.48;47.60
78366;HTU21D;67641;59.864;30.464;2024-03-25T12:14:24;21.32;48.90
78366;HTU21D;67641;59.864;30.464;2024-03-25T12:16:56;21.13;49.67
78366;HTU21D;67641;59.864;30.464;2024-03-25T12:19:26;21.21;49.62
78366;HTU21D;67641;59.864;30.464;2024-03-25T12:22:00;21.43;49.85
78366;HTU21D;67641;59.864;30.464;2024-03-25T12:24:27;21.37;50.80
78366;HTU21D;67641;59.864;30.464;2024-03-25T12:26:53;21.39;51.06
78366;HTU21D;67641;59.864;30.464;2024-03-25T12:29:20;21.27;52.11
78366;HTU21D;67641;59.864;30.464;2024-03-25T12:31:56;21.21;53.23
78366;HTU21D;67641;59.864;30.464;2024-03-25T12:34:26;21.16;53.56
78366;HTU21D;67641;59.864;30.464;2024-03-25T12:37:03;21.05;54.37
78366;HTU21D;67641;59.864;30.464;2024-03-25T12:39:33;20.94;55.38
78366;HTU21D;67641;59.864;30.464;2024-03-25T12:42:04;20.98;55.78
78366;HTU21D;67641;59.864;30.464;2024-03-25T12:44:32;20.95;56.03
78366;HTU21D;67641;59.864;30.464;2024-03-25T12:46:58;21.09;55.97
78366;HTU21D;67641;59.864;30.464;2024-03-25T12:49:25;21.32;55.36
78366;HTU21D;67641;59.864;30.464;2024-03-25T12:51:51;21.29;54.59
78366;HTU21D;67641;59.864;30.464;2024-03-25T12:54:18;21.07;54.89
78366;HTU21D;67641;59.864;30.464;2024-03-25T12:56:44;20.93;56.29
78366;HTU21D;67641;59.864;30.464;2024-03-25T12:59:11;21.07;56.13
78366;HTU21D;67641;59.864;30.464;2024-03-25T13:01:37;21.04;55.37
78366;HTU21D;67641;59.864;30.464;2024-03-25T13:04:04;20.95;55.90
78366;HTU21D;67641;59.864;30.464;2024-03-25T13:06:30;21.11;55.20
78366;HTU21D;67641;59.864;30.464;2024-03-25T13:08:57;21.09;56.16
78366;HTU21D;67641;59.864;30.464;2024-03-25T13:11:23;21.04;55.71
78366;HTU21D;67641;59.864;30.464;2024-03-25T13:13:50;20.71;56.35
78366;HTU21D;67641;59.864;30.464;2024-03-25T13:16:16;20.44;57.05
78366;HTU21D;67641;59.864;30.464;2024-03-25T13:18:43;20.32;56.59
78366;HTU21D;67641;59.864;30.464;2024-03-25T13:21:09;20.24;57.40
78366;HTU21D;67641;59.864;30.464;2024-03-25T13:23:36;20.12;59.43
78366;HTU21D;67641;59.864;30.464;2024-03-25T13:26:03;20.01;59.61
78366;HTU21D;67641;59.864;30.464;2024-03-25T13:28:30;19.99;59.81
78366;HTU21D;67641;59.864;30.464;2024-03-25T13:30:56;20.00;59.64
78366;HTU21D;67641;59.864;30.464;2024-03-25T13:33:23;20.74;57.40
78366;HTU21D;67641;59.864;30.464;2024-03-25T13:35:50;20.69;57.61
78366;HTU21D;67641;59.864;30.464;2024-03-25T13:38:16;21.47;55.68
78366;HTU21D;67641;59.864;30.464;2024-03-25T13:40:43;21.37;55.86
78366;HTU21D;67641;59.864;30.464;2024-03-25T13:43:09;20.99;56.77
78366;HTU21D;67641;59.864;30.464;2024-03-25T13:45:36;20.55;57.38
78366;HTU21D;67641;59.864;30.464;2024-03-25T13:48:11;20.31;57.99
78366;HTU21D;67641;59.864;30.464;2024-03-25T13:50:38;20.14;59.08
78366;HTU21D;67641;59.864;30.464;2024-03-25T13:53:05;20.04;59.80
78366;HTU21D;67641;59.864;30.464;2024-03-25T13:55:31;19.96;60.23
78366;HTU21D;67641;59.864;30.464;2024-03-25T13:57:58;19.91;60.39
78366;HTU21D;67641;59.864;30.464;2024-03-25T14:00:24;19.98;60.34
78366;HTU21D;67641;59.864;30.464;2024-03-25T14:02:54;19.92;60.31
78366;HTU21D;67641;59.864;30.464;2024-03-25T14:05:21;19.83;61.41
78366;HTU21D;67641;59.864;30.464;2024-03-25T14:07:49;19.74;61.71
78366;HTU21D;67641;59.864;30.464;2024-03-25T14:10:16;19.69;62.89
78366;HTU21D;67641;59.864;30.464;2024-03-25T14:12:43;19.67;62.99
78366;HTU21D;67641;59.864;30.464;2024-03-25T14:15:09;19.63;62.78
78366;HTU21D;67641;59.864;30.464;2024-03-25T14:17:36;19.53;63.02
78366;HTU21D;67641;59.864;30.464;2024-03-25T14:20:03;19.42;62.54
78366;HTU21D;67641;59.864;30.464;2024-03-25T14:22:33;19.36;63.14
78366;HTU21D;67641;59.864;30.464;2024-03-25T14:24:59;19.38;63.10
78366;HTU21D;67641;59.864;30.464;2024-03-25T14:27:26;19.32;63.54
78366;HTU21D;67641;59.864;30.464;2024-03-25T14:29:53;19.32;63.15
78366;HTU21D;67641;59.864;30.464;2024-03-25T14:32:20;19.27;63.54
78366;HTU21D;67641;59.864;30.464;2024-03-25T14:34:47;19.17;63.58
78366;HTU21D;67641;59.864;30.464;2024-03-25T14:37:14;19.16;63.59
78366;HTU21D;67641;59.864;30.464;2024-03-25T14:39:42;19.00;65.69
78366;HTU21D;67641;59.864;30.464;2024-03-25T14:42:09;18.87;67.09
78366;HTU21D;67641;59.864;30.464;2024-03-25T14:44:37;18.80;69.65
78366;HTU21D;67641;59.864;30.464;2024-03-25T14:47:04;18.69;70.40
78366;HTU21D;67641;59.864;30.464;2024-03-25T14:49:31;18.61;71.09
78366;HTU21D;67641;59.864;30.464;2024-03-25T14:51:58;18.41;74.09
78366;HTU21D;67641;59.864;30.464;2024-03-25T14:54:33;18.26;76.06
78366;HTU21D;67641;59.864;30.464;2024-03-25T14:57:00;18.24;74.34
78366;HTU21D;67641;59.864;30.464;2024-03-25T14:59:27;18.26;74.46
78366;HTU21D;67641;59.864;30.464;2024-03-25T15:01:58;18.35;75.54
78366;HTU21D;67641;59.864;30.464;2024-03-25T15:04:26;18.37;75.01